Time;durP1;ratioP1;P1;durP2;ratioP2;P2;SDS_P1;SDS_P2;PMS_P1;PMS_P2;Temp;Humidity;BMP_temperature;BMP_pressure;BME280_temperature;BME280_humidity;BME280_pressure;Samples;Min_cycle;Max_cycle;Signal;HPM_P1;HPM_P2
2021/11/24 00:00:19;;;;;;;8.50;3.85;;;;;;;-144.57;100.00;62443.72;5054349;28;20036;-63
2021/11/24 00:02:46;;;;;;;11.68;4.85;;;;;;;-144.57;100.00;62443.72;5054104;28;20122;-63
2021/11/24 00:05:12;;;;;;;10.30;5.22;;;;;;;-144.57;100.00;62443.72;5054167;28;20033;-63
2021/11/24 00:07:40;;;;;;;8.48;4.43;;;;;;;-144.57;100.00;62443.72;5053800;28;20051;-64
2021/11/24 00:10:06;;;;;;;10.57;4.35;;;;;;;-144.57;100.00;62443.72;5053864;28;20518;-64
2021/11/24 00:12:32;;;;;;;8.48;4.72;;;;;;;-144.57;100.00;62443.72;5052423;28;20045;-64
2021/11/24 00:14:58;;;;;;;8.38;4.50;;;;;;;-144.57;100.00;62443.72;5052669;28;20423;-64
2021/11/24 00:17:23;;;;;;;10.77;4.93;;;;;;;-144.57;100.00;62443.72;5054011;28;20126;-64
2021/11/24 00:19:50;;;;;;;10.38;4.10;;;;;;;-144.57;100.00;62443.72;5036077;28;20037;-63
2021/11/24 00:22:16;;;;;;;9.73;3.80;;;;;;;-144.57;100.00;62443.72;5052458;28;20041;-63
2021/11/24 00:24:41;;;;;;;10.02;4.80;;;;;;;-144.57;100.00;62443.72;5052657;28;20048;-64
2021/11/24 00:27:07;;;;;;;12.05;4.45;;;;;;;-144.57;100.00;62443.72;5053328;28;20498;-63
2021/11/24 00:29:33;;;;;;;9.85;4.55;;;;;;;-144.57;100.00;62443.72;5053799;28;20174;-63
2021/11/24 00:31:59;;;;;;;10.32;4.72;;;;;;;-144.57;100.00;62443.72;5052740;28;20044;-64
2021/11/24 00:34:25;;;;;;;11.75;4.70;;;;;;;-144.57;100.00;62443.72;5052450;28;20045;-64
2021/11/24 00:36:51;;;;;;;15.05;5.65;;;;;;;-144.57;100.00;62443.72;5053610;28;20556;-64
2021/11/24 00:39:17;;;;;;;12.75;5.90;;;;;;;-144.57;100.00;62443.72;5053871;28;20079;-63
2021/11/24 00:41:43;;;;;;;14.15;5.43;;;;;;;-144.57;100.00;62443.72;5053472;28;20041;-63
2021/11/24 00:44:08;;;;;;;10.45;4.95;;;;;;;-144.57;100.00;62443.72;5052256;28;20053;-63
2021/11/24 00:46:34;;;;;;;11.43;5.25;;;;;;;-144.57;100.00;62443.72;5053425;28;20051;-63
2021/11/24 00:49:00;;;;;;;12.82;6.00;;;;;;;-144.57;100.00;62443.72;5053628;28;20045;-63
2021/11/24 00:51:26;;;;;;;15.98;5.65;;;;;;;-144.57;100.00;62443.72;5053417;28;20043;-63
2021/11/24 00:53:52;;;;;;;10.80;5.35;;;;;;;-144.57;100.00;62443.72;5053441;28;20138;-64
2021/11/24 00:56:18;;;;;;;11.30;4.75;;;;;;;-144.57;100.00;62443.72;5051680;28;20037;-63
2021/11/24 00:58:44;;;;;;;12.00;5.60;;;;;;;-144.57;100.00;62443.72;5035442;28;20048;-64
2021/11/24 01:01:10;;;;;;;11.38;5.13;;;;;;;-144.57;100.00;62443.72;5052912;28;20047;-64
2021/11/24 01:03:38;;;;;;;9.27;4.95;;;;;;;-144.57;100.00;62443.72;5053304;28;20167;-63
2021/11/24 01:06:05;;;;;;;10.40;4.95;;;;;;;-144.57;100.00;62443.72;5051515;28;20040;-63
2021/11/24 01:08:31;;;;;;;11.50;5.32;;;;;;;-144.57;100.00;62443.72;5035180;28;20064;-62
2021/11/24 01:10:57;;;;;;;14.02;5.07;;;;;;;-144.57;100.00;62443.72;5052984;28;20410;-63
2021/11/24 01:13:23;;;;;;;8.98;4.93;;;;;;;-144.57;100.00;62443.72;5053023;28;20045;-63
2021/11/24 01:15:50;;;;;;;8.98;4.40;;;;;;;-144.57;100.00;62443.72;5051386;28;20049;-63
2021/11/24 01:18:17;;;;;;;11.00;4.90;;;;;;;-144.57;100.00;62443.72;5052690;28;20045;-63
2021/11/24 01:20:46;;;;;;;11.65;4.65;;;;;;;-144.57;100.00;62443.72;5051519;28;20037;-63
2021/11/24 01:23:13;;;;;;;12.80;5.18;;;;;;;-144.57;100.00;62443.72;5052935;28;20494;-62
2021/11/24 01:25:39;;;;;;;12.95;4.45;;;;;;;-144.57;100.00;62443.72;5052410;28;20053;-63
2021/11/24 01:28:06;;;;;;;11.13;4.68;;;;;;;-144.57;100.00;62443.72;5052434;28;20063;-63
2021/11/24 01:30:32;;;;;;;14.93;5.00;;;;;;;-144.57;100.00;62443.72;5052501;28;20046;-63
2021/11/24 01:32:58;;;;;;;8.70;4.57;;;;;;;-144.57;100.00;62443.72;5052606;28;20052;-62
2021/11/24 01:35:24;;;;;;;12.50;4.85;;;;;;;-144.57;100.00;62443.72;5034322;28;20044;-63
2021/11/24 01:37:50;;;;;;;13.63;4.25;;;;;;;-144.57;100.00;62443.72;5051845;28;20045;-63
2021/11/24 01:40:16;;;;;;;9.93;4.47;;;;;;;-144.57;100.00;62443.72;5052301;28;20148;-63
2021/11/24 01:42:42;;;;;;;11.88;4.68;;;;;;;-144.57;100.00;62443.72;5052046;28;20091;-63
2021/11/24 01:45:10;;;;;;;13.30;5.15;;;;;;;-144.57;100.00;62443.72;5052164;28;20406;-63
2021/11/24 01:47:36;;;;;;;11.40;4.38;;;;;;;-144.57;100.00;62443.72;5051539;28;20045;-62
2021/11/24 01:50:03;;;;;;;8.93;4.03;;;;;;;-144.57;100.00;62443.72;5051917;28;20045;-64
2021/11/24 01:52:30;;;;;;;9.02;4.10;;;;;;;-144.57;100.00;62443.72;5051599;28;20557;-64
2021/11/24 01:54:56;;;;;;;7.40;3.83;;;;;;;-144.57;100.00;62443.72;5051746;28;20531;-63
2021/11/24 01:57:24;;;;;;;8.70;3.92;;;;;;;-144.57;100.00;62443.72;5051420;28;20137;-63
2021/11/24 01:59:50;;;;;;;10.02;4.13;;;;;;;-144.57;100.00;62443.72;5050453;28;20505;-62
2021/11/24 02:02:17;;;;;;;6.55;3.55;;;;;;;-144.57;100.00;62443.72;5051836;28;20727;-63
2021/11/24 02:04:43;;;;;;;7.97;3.35;;;;;;;-144.57;100.00;62443.72;5051799;28;20551;-63
2021/11/24 02:07:09;;;;;;;8.40;3.40;;;;;;;-144.57;100.00;62443.72;5051751;28;20063;-63
2021/11/24 02:09:35;;;;;;;13.02;4.18;;;;;;;-144.57;100.00;62443.72;5051413;28;20166;-63
2021/11/24 02:12:01;;;;;;;9.35;3.92;;;;;;;-144.57;100.00;62443.72;5049990;28;20051;-64
2021/11/24 02:14:28;;;;;;;8.77;4.13;;;;;;;-144.57;100.00;62443.72;5050286;28;20079;-63
2021/11/24 02:16:55;;;;;;;10.20;4.35;;;;;;;-144.57;100.00;62443.72;5051591;28;20094;-62
2021/11/24 02:19:28;;;;;;;6.88;3.80;;;;;;;-144.57;100.00;62443.72;5049825;28;20418;-63
2021/11/24 02:21:55;;;;;;;8.00;3.80;;;;;;;-144.57;100.00;62443.72;5051784;28;20041;-63
2021/11/24 02:24:24;;;;;;;10.55;3.72;;;;;;;-144.57;100.00;62443.72;5051957;28;20045;-63
2021/11/24 02:26:50;;;;;;;8.00;3.97;;;;;;;-144.57;100.00;62443.72;5050167;28;20060;-63
2021/11/24 02:29:17;;;;;;;8.57;3.75;;;;;;;-144.57;100.00;62443.72;5050306;28;20122;-63
2021/11/24 02:31:48;;;;;;;8.27;3.35;;;;;;;-144.57;100.00;62443.72;5051250;28;20534;-62
2021/11/24 02:34:15;;;;;;;7.47;3.72;;;;;;;-144.57;100.00;62443.72;5051837;28;20072;-63
2021/11/24 02:36:40;;;;;;;7.53;3.92;;;;;;;-144.57;100.00;62443.72;5050016;28;20573;-64
2021/11/24 02:39:06;;;;;;;9.57;3.38;;;;;;;-144.57;100.00;62443.72;5033793;28;20060;-62
2021/11/24 02:41:33;;;;;;;8.77;3.78;;;;;;;-144.57;100.00;62443.72;5051181;28;20041;-63
2021/11/24 02:44:20;;;;;;;6.03;3.22;;;;;;;-144.57;100.00;62443.72;5051717;28;20049;-62
2021/11/24 02:46:46;;;;;;;8.80;4.20;;;;;;;-144.57;100.00;62443.72;5051400;28;20040;-63
2021/11/24 02:49:13;;;;;;;8.43;3.85;;;;;;;-144.57;100.00;62443.72;5051608;28;20068;-63
2021/11/24 02:51:40;;;;;;;8.13;3.42;;;;;;;-144.57;100.00;62443.72;5051297;28;20107;-63
2021/11/24 02:54:06;;;;;;;11.10;4.28;;;;;;;-144.57;100.00;62443.72;5050142;28;20094;-63
2021/11/24 02:56:32;;;;;;;7.20;3.30;;;;;;;-144.57;100.00;62443.72;5037650;28;20056;-62
2021/11/24 02:58:57;;;;;;;7.55;3.00;;;;;;;-144.57;100.00;62443.72;5055712;28;20139;-63
2021/11/24 03:01:23;;;;;;;9.45;4.05;;;;;;;-144.57;100.00;62443.72;5055400;28;20029;-63
2021/11/24 03:03:49;;;;;;;8.82;3.88;;;;;;;-144.57;100.00;62443.72;5055085;28;20516;-64
2021/11/24 03:06:15;;;;;;;7.70;3.60;;;;;;;-144.57;100.00;62443.72;5054955;28;20044;-62
2021/11/24 03:08:41;;;;;;;7.90;3.88;;;;;;;-144.57;100.00;62443.72;5053937;28;20047;-63
2021/11/24 03:11:07;;;;;;;9.95;3.67;;;;;;;-144.57;100.00;62443.72;5037290;28;20036;-62
2021/11/24 03:13:33;;;;;;;11.13;4.28;;;;;;;-144.57;100.00;62443.72;5055146;28;20052;-64
2021/11/24 03:15:59;;;;;;;6.85;3.67;;;;;;;-144.57;100.00;62443.72;5053583;28;20033;-63
2021/11/24 03:18:25;;;;;;;10.30;4.05;;;;;;;-144.57;100.00;62443.72;5037250;28;20076;-63
2021/11/24 03:20:51;;;;;;;8.82;3.80;;;;;;;-144.57;100.00;62443.72;5054750;28;20091;-63
2021/11/24 03:23:17;;;;;;;10.98;3.80;;;;;;;-144.57;100.00;62443.72;5055011;28;20053;-63
2021/11/24 03:25:43;;;;;;;10.13;3.55;;;;;;;-144.57;100.00;62443.72;5053345;28;20188;-62
2021/11/24 03:28:10;;;;;;;9.02;4.03;;;;;;;-144.57;100.00;62443.72;5053293;28;20182;-62
2021/11/24 03:30:36;;;;;;;10.65;4.10;;;;;;;-144.57;100.00;62443.72;5053382;28;20180;-63
2021/11/24 03:33:03;;;;;;;9.23;3.85;;;;;;;-144.57;100.00;62443.72;5054449;28;20061;-63
2021/11/24 03:35:30;;;;;;;7.95;3.88;;;;;;;-144.57;100.00;62443.72;5053566;28;20041;-63
2021/11/24 03:37:57;;;;;;;7.57;3.63;;;;;;;-144.57;100.00;62443.72;5054708;28;20049;-62
2021/11/24 03:40:25;;;;;;;8.93;3.90;;;;;;;-144.57;100.00;62443.72;5053144;28;20510;-63
2021/11/24 03:42:51;;;;;;;10.27;4.50;;;;;;;-144.57;100.00;62443.72;5054224;28;20029;-62
2021/11/24 03:45:21;;;;;;;11.13;4.28;;;;;;;-144.57;100.00;62443.72;5054749;28;20079;-63
2021/11/24 03:47:47;;;;;;;8.45;4.30;;;;;;;-144.57;100.00;62443.72;5054587;28;20037;-63
2021/11/24 03:50:14;;;;;;;9.98;4.05;;;;;;;-144.57;100.00;62443.72;5054444;28;20037;-63
2021/11/24 03:52:40;;;;;;;12.20;4.68;;;;;;;-144.57;100.00;62443.72;5052713;28;20095;-64
2021/11/24 03:55:07;;;;;;;10.90;4.22;;;;;;;-144.57;100.00;62443.72;5054107;28;20041;-63
2021/11/24 03:57:33;;;;;;;9.93;3.97;;;;;;;-144.57;100.00;62443.72;5054311;28;20068;-63
2021/11/24 03:59:59;;;;;;;10.88;3.88;;;;;;;-144.57;100.00;62443.72;5052863;28;20506;-63
2021/11/24 04:02:25;;;;;;;9.88;4.43;;;;;;;-144.57;100.00;62443.72;5052860;28;20049;-64
2021/11/24 04:04:52;;;;;;;11.75;4.93;;;;;;;-144.57;100.00;62443.72;5053966;28;20109;-64
2021/11/24 04:07:18;;;;;;;12.25;4.32;;;;;;;-144.57;100.00;62443.72;5051735;28;20463;-64
2021/11/24 04:09:44;;;;;;;8.48;4.18;;;;;;;-144.57;100.00;62443.72;5052264;28;20040;-62
2021/11/24 04:12:10;;;;;;;10.57;4.65;;;;;;;-144.57;100.00;62443.72;5051873;28;20583;-63
2021/11/24 04:14:36;;;;;;;12.77;4.40;;;;;;;-144.57;100.00;62443.72;5052227;28;20083;-62
2021/11/24 04:17:02;;;;;;;9.75;4.35;;;;;;;-144.57;100.00;62443.72;5053818;28;20090;-64
2021/11/24 04:19:28;;;;;;;10.63;4.30;;;;;;;-144.57;100.00;62443.72;5053683;28;20422;-62
2021/11/24 04:21:54;;;;;;;6.35;4.32;;;;;;;-144.57;100.00;62443.72;5053249;28;20044;-64
2021/11/24 04:24:20;;;;;;;7.60;3.78;;;;;;;-144.57;100.00;62443.72;5053783;28;20551;-63
2021/11/24 04:26:46;;;;;;;12.93;5.43;;;;;;;-144.57;100.00;62443.72;5053364;28;20053;-65
2021/11/24 04:29:11;;;;;;;11.38;4.78;;;;;;;-144.57;100.00;62443.72;5052418;28;20048;-63
2021/11/24 04:31:37;;;;;;;10.65;4.70;;;;;;;-144.57;100.00;62443.72;5053564;28;20395;-68
2021/11/24 04:34:03;;;;;;;11.38;5.20;;;;;;;-144.57;100.00;62443.72;5053605;28;20088;-62
2021/11/24 04:36:29;;;;;;;10.18;5.18;;;;;;;-144.57;100.00;62443.72;5053521;28;20049;-64
2021/11/24 04:38:55;;;;;;;11.68;5.07;;;;;;;-144.57;100.00;62443.72;5053708;28;20544;-64
2021/11/24 04:41:21;;;;;;;13.55;4.78;;;;;;;-144.57;100.00;62443.72;5053189;28;20095;-66
2021/11/24 04:43:48;;;;;;;16.45;5.65;;;;;;;-144.57;100.00;62443.72;5052930;28;20056;-63
2021/11/24 04:46:16;;;;;;;14.57;5.53;;;;;;;-144.57;100.00;62443.72;5053057;28;20490;-64
2021/11/24 04:48:42;;;;;;;11.82;5.78;;;;;;;-144.57;100.00;62443.72;5053490;28;20049;-65
2021/11/24 04:51:08;;;;;;;9.73;5.78;;;;;;;-144.57;100.00;62443.72;5053107;28;20095;-66
2021/11/24 04:53:34;;;;;;;11.18;5.35;;;;;;;-144.57;100.00;62443.72;5051889;28;20052;-65
2021/11/24 04:56:00;;;;;;;18.58;6.15;;;;;;;-144.57;100.00;62443.72;5053015;28;20801;-65
2021/11/24 04:58:27;;;;;;;11.88;5.68;;;;;;;-144.57;100.00;62443.72;5053067;28;20194;-67
2021/11/24 05:00:53;;;;;;;11.85;5.47;;;;;;;-144.57;100.00;62443.72;5052558;28;20061;-66
2021/11/24 05:03:19;;;;;;;13.18;5.95;;;;;;;-144.57;100.00;62443.72;5052503;28;20497;-64
2021/11/24 05:05:45;;;;;;;11.98;5.55;;;;;;;-144.57;100.00;62443.72;5052518;28;20041;-66
2021/11/24 05:08:11;;;;;;;14.45;5.82;;;;;;;-144.57;100.00;62443.72;5043417;28;20057;-66
2021/11/24 05:10:37;;;;;;;9.23;5.07;;;;;;;-144.57;100.00;62443.72;5032986;28;20045;-63
2021/11/24 05:13:07;;;;;;;14.20;5.13;;;;;;;-144.57;100.00;62443.72;5050479;28;20080;-63
2021/11/24 05:15:37;;;;;;;12.77;6.30;;;;;;;-144.57;100.00;62443.72;5050286;28;20045;-63
2021/11/24 05:18:11;;;;;;;14.27;6.03;;;;;;;-144.57;100.00;62443.72;5049368;28;20127;-64
2021/11/24 05:20:38;;;;;;;12.07;5.43;;;;;;;-144.57;100.00;62443.72;5048747;28;20067;-63
2021/11/24 05:23:05;;;;;;;9.27;4.90;;;;;;;-144.57;100.00;62443.72;5048463;28;20127;-65
2021/11/24 05:25:33;;;;;;;13.82;6.03;;;;;;;-144.57;100.00;62443.72;5049433;28;20076;-65
2021/11/24 05:27:59;;;;;;;11.15;5.45;;;;;;;-144.57;100.00;62443.72;5049897;28;20060;-64
2021/11/24 05:30:27;;;;;;;10.90;4.93;;;;;;;-144.57;100.00;62443.72;5050035;28;20071;-66
2021/11/24 05:32:53;;;;;;;13.00;5.10;;;;;;;-144.57;100.00;62443.72;5047564;28;20405;-65
2021/11/24 05:35:21;;;;;;;11.20;5.40;;;;;;;-144.57;100.00;62443.72;5032241;28;20128;-64
2021/11/24 05:37:48;;;;;;;14.02;5.60;;;;;;;-144.57;100.00;62443.72;5032182;28;20049;-65
2021/11/24 05:40:15;;;;;;;9.88;5.03;;;;;;;-144.57;100.00;62443.72;5051509;28;20502;-65
2021/11/24 05:42:46;;;;;;;11.20;5.07;;;;;;;-144.57;100.00;62443.72;5049438;28;20041;-64
2021/11/24 05:45:27;;;;;;;11.20;5.18;;;;;;;-144.57;100.00;62443.72;5049561;28;20048;-65
2021/11/24 05:48:03;;;;;;;14.68;5.70;;;;;;;-144.57;100.00;62443.72;5032637;28;20498;-64
2021/11/24 05:50:30;;;;;;;11.52;4.80;;;;;;;-144.57;100.00;62443.72;5034576;28;20045;-65
2021/11/24 05:52:56;;;;;;;13.90;5.40;;;;;;;-144.57;100.00;62443.72;5031617;28;20111;-64
2021/11/24 05:55:23;;;;;;;10.75;5.60;;;;;;;-144.57;100.00;62443.72;5051147;28;20049;-65
2021/11/24 05:57:49;;;;;;;9.70;5.53;;;;;;;-144.57;100.00;62443.72;5050133;28;20041;-66
2021/11/24 06:00:17;;;;;;;9.23;4.97;;;;;;;-144.57;100.00;62443.72;5049602;28;20124;-62
2021/11/24 06:02:43;;;;;;;11.63;5.18;;;;;;;-144.57;100.00;62443.72;5049525;28;20072;-65
2021/11/24 06:05:10;;;;;;;14.40;5.97;;;;;;;-144.57;100.00;62443.72;5050451;28;20068;-64
2021/11/24 06:07:36;;;;;;;10.10;5.70;;;;;;;-144.57;100.00;62443.72;5049479;28;20055;-68
2021/11/24 06:10:03;;;;;;;10.52;4.43;;;;;;;-144.57;100.00;62443.72;5047338;28;20354;-64
2021/11/24 06:12:29;;;;;;;10.93;4.90;;;;;;;-144.57;100.00;62443.72;5044783;28;20521;-65
2021/11/24 06:14:55;;;;;;;11.10;5.22;;;;;;;-144.57;100.00;62443.72;5047370;28;20037;-65
2021/11/24 06:17:21;;;;;;;10.48;4.90;;;;;;;-144.57;100.00;62443.72;5048182;28;20383;-65
2021/11/24 06:19:47;;;;;;;11.80;5.50;;;;;;;-144.57;100.00;62443.72;5046360;28;20037;-65
2021/11/24 06:22:13;;;;;;;11.13;5.03;;;;;;;-144.57;100.00;62443.72;5046645;28;20129;-65
2021/11/24 06:24:39;;;;;;;10.85;5.30;;;;;;;-144.57;100.00;62443.72;5047135;28;20469;-64
2021/11/24 06:27:05;;;;;;;10.00;5.35;;;;;;;-144.57;100.00;62443.72;5013174;28;20136;-64
2021/11/24 06:29:31;;;;;;;8.63;5.13;;;;;;;-144.57;100.00;62443.72;5045736;28;20064;-66
2021/11/24 06:31:57;;;;;;;12.52;5.18;;;;;;;-144.57;100.00;62443.72;5049420;28;20072;-64
2021/11/24 06:34:23;;;;;;;9.95;4.95;;;;;;;-144.57;100.00;62443.72;5048139;28;20076;-64
2021/11/24 06:36:49;;;;;;;17.00;5.20;;;;;;;-144.57;100.00;62443.72;5048283;28;20068;-63
2021/11/24 06:39:15;;;;;;;12.93;5.20;;;;;;;-144.57;100.00;62443.72;5029433;28;20055;-66
2021/11/24 06:41:41;;;;;;;11.75;5.57;;;;;;;-144.57;100.00;62443.72;5048039;28;20041;-65
2021/11/24 06:44:07;;;;;;;10.07;5.20;;;;;;;-144.57;100.00;62443.72;5048167;28;20068;-64
2021/11/24 06:46:36;;;;;;;10.48;5.40;;;;;;;-144.57;100.00;62443.72;5047013;28;20497;-64
2021/11/24 06:49:02;;;;;;;12.90;4.97;;;;;;;-144.57;100.00;62443.72;5048477;28;20037;-63
2021/11/24 06:51:28;;;;;;;15.90;5.72;;;;;;;-144.57;100.00;62443.72;5047090;28;20406;-64
2021/11/24 06:53:53;;;;;;;9.90;4.78;;;;;;;-144.57;100.00;62443.72;5047984;28;20049;-64
2021/11/24 06:56:19;;;;;;;11.38;5.25;;;;;;;-144.57;100.00;62443.72;5049222;28;20098;-64
2021/11/24 06:58:45;;;;;;;8.45;4.40;;;;;;;-144.57;100.00;62443.72;5047149;28;20051;-64
2021/11/24 07:01:11;;;;;;;11.48;5.15;;;;;;;-144.57;100.00;62443.72;5048907;28;20557;-65
2021/11/24 07:03:37;;;;;;;15.60;5.40;;;;;;;-144.57;100.00;62443.72;5048992;28;20071;-64
2021/11/24 07:06:03;;;;;;;9.68;5.05;;;;;;;-144.57;100.00;62443.72;5048547;28;20498;-66
2021/11/24 07:08:29;;;;;;;7.22;4.75;;;;;;;-144.57;100.00;62443.72;5047793;28;20045;-66
2021/11/24 07:10:54;;;;;;;12.10;4.88;;;;;;;-144.57;100.00;62443.72;5045180;28;20044;-65
2021/11/24 07:13:20;;;;;;;18.92;5.03;;;;;;;-144.57;100.00;62443.72;5047379;28;20094;-64
2021/11/24 07:15:46;;;;;;;10.98;4.80;;;;;;;-144.57;100.00;62443.72;5035625;28;20053;-65
2021/11/24 07:18:12;;;;;;;9.32;5.07;;;;;;;-144.57;100.00;62443.72;5026810;28;20048;-65
2021/11/24 07:20:38;;;;;;;11.65;5.10;;;;;;;-144.57;100.00;62443.72;5040323;28;20041;-65
2021/11/24 07:23:04;;;;;;;15.02;4.93;;;;;;;-144.57;100.00;62443.72;5047017;28;20045;-65
2021/11/24 07:25:31;;;;;;;8.88;4.65;;;;;;;-144.57;100.00;62443.72;5046350;28;20486;-64
2021/11/24 07:27:58;;;;;;;12.02;5.03;;;;;;;-144.57;100.00;62443.72;5046315;28;20423;-64
2021/11/24 07:30:25;;;;;;;11.68;4.47;;;;;;;-144.57;100.00;62443.72;5044351;28;20523;-65
2021/11/24 07:32:51;;;;;;;9.20;5.05;;;;;;;-144.57;100.00;62443.72;5047797;28;20482;-64
2021/11/24 07:35:17;;;;;;;6.55;4.40;;;;;;;-144.57;100.00;62443.72;5045022;28;20056;-64
2021/11/24 07:37:43;;;;;;;9.23;4.28;;;;;;;-144.57;100.00;62443.72;5046735;28;20056;-63
2021/11/24 07:40:10;;;;;;;13.07;4.93;;;;;;;-144.57;100.00;62443.72;5046867;28;20573;-65
2021/11/24 07:42:37;;;;;;;9.05;4.93;;;;;;;-144.57;100.00;62443.72;5049787;28;20057;-63
2021/11/24 07:45:03;;;;;;;24.67;4.88;;;;;;;-144.57;100.00;62443.72;5050164;28;20498;-65
2021/11/24 07:47:29;;;;;;;6.55;4.07;;;;;;;-144.57;100.00;62443.72;5050829;28;20145;-65
2021/11/24 07:49:56;;;;;;;9.80;4.28;;;;;;;-144.57;100.00;62443.72;5050816;28;20136;-65
2021/11/24 07:52:22;;;;;;;8.23;4.38;;;;;;;-144.57;100.00;62443.72;5048594;28;20041;-66
2021/11/24 07:54:48;;;;;;;10.90;5.03;;;;;;;-144.57;100.00;62443.72;5049838;28;20040;-64
2021/11/24 07:57:17;;;;;;;6.20;4.03;;;;;;;-144.57;100.00;62443.72;5048656;28;20116;-64
2021/11/24 07:59:43;;;;;;;9.05;4.25;;;;;;;-144.57;100.00;62443.72;5048740;28;20041;-64
2021/11/24 08:02:09;;;;;;;6.97;4.30;;;;;;;-144.57;100.00;62443.72;5052193;28;20040;-65
2021/11/24 08:04:36;;;;;;;11.68;4.38;;;;;;;-144.57;100.00;62443.72;5052647;28;20429;-64
2021/11/24 08:07:03;;;;;;;8.55;4.40;;;;;;;-144.57;100.00;62443.72;5050734;28;20140;-65
2021/11/24 08:09:30;;;;;;;6.72;3.78;;;;;;;-144.57;100.00;62443.72;5051847;28;20107;-64
2021/11/24 08:11:58;;;;;;;6.80;3.92;;;;;;;-144.57;100.00;62443.72;5033553;28;20041;-64
2021/11/24 08:14:25;;;;;;;5.88;4.03;;;;;;;-144.57;100.00;62443.72;5050798;28;20049;-65
2021/11/24 08:16:51;;;;;;;10.60;3.83;;;;;;;-144.57;100.00;62443.72;5050225;28;20095;-64
2021/11/24 08:19:16;;;;;;;9.73;4.35;;;;;;;-144.57;100.00;62443.72;5050911;28;20048;-65
2021/11/24 08:21:44;;;;;;;8.50;4.10;;;;;;;-144.57;100.00;62443.72;5047173;28;20298;-64
2021/11/24 08:24:10;;;;;;;7.68;4.43;;;;;;;-144.57;100.00;62443.72;5033709;28;20049;-66
2021/11/24 08:26:36;;;;;;;7.93;4.13;;;;;;;-144.57;100.00;62443.72;5052135;28;20061;-64
2021/11/24 08:29:02;;;;;;;9.85;4.55;;;;;;;-144.57;100.00;62443.72;5050234;28;20075;-64
2021/11/24 08:31:29;;;;;;;8.82;4.40;;;;;;;-144.57;100.00;62443.72;5048377;28;20045;-68
2021/11/24 08:33:55;;;;;;;8.65;3.88;;;;;;;-144.57;100.00;62443.72;5049790;28;20095;-66
2021/11/24 08:36:21;;;;;;;7.13;4.10;;;;;;;-144.57;100.00;62443.72;5048855;28;20500;-62
2021/11/24 08:38:47;;;;;;;10.77;3.90;;;;;;;-144.57;100.00;62443.72;5047369;28;20060;-65
2021/11/24 08:41:15;;;;;;;7.45;3.72;;;;;;;-144.57;100.00;62443.72;5052410;28;20044;-64
2021/11/24 08:43:41;;;;;;;7.70;4.32;;;;;;;-144.57;100.00;62443.72;5050260;28;20045;-63
2021/11/24 08:46:08;;;;;;;9.15;5.70;;;;;;;-144.57;100.00;62443.72;5049668;28;20037;-64
2021/11/24 08:48:34;;;;;;;10.70;4.35;;;;;;;-144.57;100.00;62443.72;5048751;28;20110;-63
2021/11/24 08:51:00;;;;;;;7.57;4.20;;;;;;;-144.57;100.00;62443.72;5063292;28;20467;-63
2021/11/24 08:53:27;;;;;;;7.50;4.18;;;;;;;-144.57;100.00;62443.72;5050242;28;20490;-62
2021/11/24 08:55:53;;;;;;;5.68;3.58;;;;;;;-144.57;100.00;62443.72;5049359;28;20048;-63
2021/11/24 08:58:19;;;;;;;7.43;4.40;;;;;;;-144.57;100.00;62443.72;5048325;28;20126;-63
2021/11/24 09:00:46;;;;;;;9.20;4.30;;;;;;;-144.57;100.00;62443.72;5048535;28;20045;-63
2021/11/24 09:03:12;;;;;;;11.70;4.75;;;;;;;-144.57;100.00;62443.72;5051415;28;20045;-64
2021/11/24 09:05:39;;;;;;;7.80;4.25;;;;;;;-144.57;100.00;62443.72;5031803;28;20039;-64
2021/11/24 09:08:05;;;;;;;7.85;4.05;;;;;;;-144.57;100.00;62443.72;5049499;28;20052;-65
2021/11/24 09:10:31;;;;;;;8.57;4.25;;;;;;;-144.57;100.00;62443.72;5030894;28;20159;-65
2021/11/24 09:13:00;;;;;;;7.00;4.05;;;;;;;-144.57;100.00;62443.72;5048601;28;20071;-63
2021/11/24 09:15:27;;;;;;;9.40;4.93;;;;;;;-144.57;100.00;62443.72;5048815;28;20607;-64
2021/11/24 09:17:53;;;;;;;6.93;4.22;;;;;;;-144.57;100.00;62443.72;5047106;28;20041;-64
2021/11/24 09:20:20;;;;;;;13.80;4.38;;;;;;;-144.57;100.00;62443.72;5047073;28;20071;-65
2021/11/24 09:22:48;;;;;;;7.38;4.10;;;;;;;-144.57;100.00;62443.72;5048941;28;20045;-65
2021/11/24 09:25:19;;;;;;;8.48;4.25;;;;;;;-144.57;100.00;62443.72;5048470;28;20040;-65
2021/11/24 09:30:20;;;;;;;7.20;3.78;;;;;;;-144.57;100.00;62443.72;5049407;28;20064;-64
2021/11/24 09:32:46;;;;;;;7.18;3.90;;;;;;;-144.57;100.00;62443.72;5031335;28;20049;-64
2021/11/24 09:35:13;;;;;;;6.70;4.18;;;;;;;-144.57;100.00;62443.72;5047014;28;20037;-66
2021/11/24 09:37:39;;;;;;;14.32;4.60;;;;;;;-144.57;100.00;62443.72;5050192;28;20094;-66
2021/11/24 09:40:09;;;;;;;6.63;3.80;;;;;;;-144.57;100.00;62443.72;5046982;28;20045;-65
2021/11/24 09:42:37;;;;;;;9.85;4.00;;;;;;;-144.57;100.00;62443.72;5043778;28;20482;-65
2021/11/24 09:45:05;;;;;;;7.72;4.32;;;;;;;-144.57;100.00;62443.72;5046816;28;20037;-67
2021/11/24 09:47:33;;;;;;;7.65;4.15;;;;;;;-144.57;100.00;62443.72;5048763;28;20120;-64
2021/11/24 09:50:00;;;;;;;8.70;4.45;;;;;;;-144.57;100.00;62443.72;5046871;28;20045;-67
2021/11/24 09:52:27;;;;;;;6.85;3.85;;;;;;;-144.57;100.00;62443.72;5031142;28;20103;-65
2021/11/24 09:54:53;;;;;;;11.82;4.00;;;;;;;-144.57;100.00;62443.72;5047927;28;20036;-64
2021/11/24 09:57:24;;;;;;;6.45;3.53;;;;;;;-144.57;100.00;62443.72;5046445;28;20124;-67
2021/11/24 09:59:50;;;;;;;8.68;3.80;;;;;;;-144.57;100.00;62443.72;5029334;28;20059;-65
2021/11/24 10:02:18;;;;;;;10.32;4.03;;;;;;;-144.57;100.00;62443.72;5046363;28;20041;-64
2021/11/24 10:04:45;;;;;;;6.78;4.28;;;;;;;-144.57;100.00;62443.72;5046689;28;20490;-64
2021/11/24 10:07:13;;;;;;;6.50;4.00;;;;;;;-144.57;100.00;62443.72;5049370;28;20049;-65
2021/11/24 10:09:40;;;;;;;6.00;3.95;;;;;;;-144.57;100.00;62443.72;5049395;28;20041;-64
2021/11/24 10:12:07;;;;;;;8.80;3.88;;;;;;;-144.57;100.00;62443.72;5047940;28;20037;-67
2021/11/24 10:14:33;;;;;;;5.60;3.67;;;;;;;-144.57;100.00;62443.72;5048081;28;20049;-66
2021/11/24 10:17:05;;;;;;;8.75;4.65;;;;;;;-144.57;100.00;62443.72;5045887;28;20063;-66
2021/11/24 10:19:31;;;;;;;10.52;4.65;;;;;;;-144.57;100.00;62443.72;5045210;28;20441;-65
2021/11/24 10:22:00;;;;;;;7.13;4.53;;;;;;;-144.57;100.00;62443.72;5046571;28;20045;-65
2021/11/24 10:24:31;;;;;;;8.52;4.30;;;;;;;-144.57;100.00;62443.72;5041093;28;20473;-64
2021/11/24 10:26:58;;;;;;;10.70;4.05;;;;;;;-144.57;100.00;62443.72;5046384;28;20068;-66
2021/11/24 10:29:25;;;;;;;6.72;3.88;;;;;;;-144.57;100.00;62443.72;5048456;28;20624;-66
2021/11/24 10:31:55;;;;;;;10.93;4.50;;;;;;;-144.57;100.00;62443.72;5047299;28;20045;-65
2021/11/24 10:34:30;;;;;;;13.98;4.47;;;;;;;-144.57;100.00;62443.72;5047670;28;20148;-64
2021/11/24 10:37:08;;;;;;;9.90;4.13;;;;;;;-144.57;100.00;62443.72;5046256;28;20584;-64
2021/11/24 10:39:46;;;;;;;8.20;4.95;;;;;;;-144.57;100.00;62443.72;5048499;28;20041;-64
2021/11/24 10:42:17;;;;;;;7.30;4.03;;;;;;;-144.57;100.00;62443.72;5048758;28;20112;-65
2021/11/24 10:45:05;;;;;;;8.07;4.85;;;;;;;-144.57;100.00;62443.72;5049914;28;20039;-65
2021/11/24 10:47:33;;;;;;;6.28;3.92;;;;;;;-144.57;100.00;62443.72;5046694;28;20394;-65
2021/11/24 10:50:01;;;;;;;6.50;3.70;;;;;;;-144.57;100.00;62443.72;5031780;28;20037;-65
2021/11/24 10:52:27;;;;;;;9.82;4.25;;;;;;;-144.57;100.00;62443.72;5045076;28;20052;-66
2021/11/24 10:55:10;;;;;;;7.32;4.30;;;;;;;-144.57;100.00;62443.72;5046306;28;20040;-64
2021/11/24 10:57:38;;;;;;;7.32;3.88;;;;;;;-144.57;100.00;62443.72;5045405;28;20048;-65
2021/11/24 11:00:16;;;;;;;7.03;3.53;;;;;;;-144.57;100.00;62443.72;5047592;28;20041;-66
2021/11/24 11:02:46;;;;;;;6.63;3.95;;;;;;;-144.57;100.00;62443.72;5047686;28;20081;-66
2021/11/24 11:05:25;;;;;;;7.65;4.35;;;;;;;-144.57;100.00;62443.72;5047112;28;20037;-65